Chubu Centrair International Airport
RJGG : now visible

Airfield :











YOU CAN JOIN US ON...

 
LOGIN :

Register | Disclaimer

   EN    FR    IT 

 









Legend :    VFR   Marginal VFR   IFR   Intensive IFR   Very Intensive IFR
Visi :
Ceiling :
>= 8 km
>= 3000ft
5 to 8 km
1000 to 3000 ft
1500m to 5 km
500 to 1000 ft
800 to 1500m
200 to 500 ft
< 800m
< 200 ft
Symbols :   Thunderstorms  Fog  Heavy snow  Heavy precipitations  Wind > 20 kt






- Airport Elevation : 15 ft
- IATA code : NGO


RJGG - Chubu Centrair International

CURRENT METAR :
  • 191300Z 32025KT 9999 FEW025 BKN040 12/06 Q1018 NOSIG

EXPIRED METARs :
  • 191230Z 31030KT 9999 FEW030 SCT070 12/06 Q1017 NOSIG
  • 191200Z 31025KT 9999 FEW030 12/06 Q1017 NOSIG
  • 191130Z 32021KT 9999 FEW030 BKN050 12/05 Q1017 NOSIG
  • 191100Z 33020KT 9999 FEW030 BKN050 13/05 Q1017 NOSIG
  • 191030Z 33019KT 9999 FEW030 BKN070 13/04 Q1017 NOSIG

TAF TAF RJGG
Valid from the 19 at 12:00 until the 20 at 18:00 UTC


191105Z 1912/2018 31022KT 9999 FEW030 SCT045



MET'MAP, your aeronautical weather chart ! - Copyright ORBIFLY December 2007 - Disclaimer

ORBIFLY MET'MAP TEAM :

Programming & Development : Alexandra Zaïnal
Concept & Development : Baudouin d'Aumeries
Co-Development & Prog : Marc-Olivier Méhu
Technical & hardware support : Manuel Goepfert

Contact : metmap@orbifly.com




SOURCES & CREDITS :

   NOAA       Earth
Advisory